createdAt,value
2022-07-28T00:03:49.113Z,22.43
2022-07-28T00:09:17.984Z,22.40
2022-07-28T00:14:48.198Z,22.36
2022-07-28T00:20:16.913Z,22.26
2022-07-28T00:25:46.173Z,22.20
2022-07-28T00:31:16.903Z,22.16
2022-07-28T00:36:46.140Z,22.14
2022-07-28T00:42:19.055Z,21.83
2022-07-28T00:47:49.374Z,21.83
2022-07-28T00:53:18.555Z,21.88
2022-07-28T00:58:48.555Z,21.97
2022-07-28T01:04:18.540Z,21.90
2022-07-28T01:10:01.370Z,21.87
2022-07-28T01:15:34.522Z,21.80
2022-07-28T01:21:09.977Z,21.80
2022-07-28T01:26:48.548Z,21.69
2022-07-28T01:32:22.119Z,21.53
2022-07-28T01:43:58.097Z,21.46
2022-07-28T01:49:30.881Z,21.37
2022-07-28T01:55:03.100Z,21.32
2022-07-28T02:00:34.128Z,21.31
2022-07-28T02:06:07.464Z,21.18
2022-07-28T02:11:41.000Z,21.16
2022-07-28T02:17:16.302Z,21.13
2022-07-28T02:22:51.389Z,21.11
2022-07-28T02:28:23.560Z,21.12
2022-07-28T02:34:02.187Z,21.18
2022-07-28T02:39:41.842Z,21.26
2022-07-28T02:45:14.040Z,21.31
2022-07-28T02:50:46.046Z,21.39
2022-07-28T02:56:17.843Z,21.49
2022-07-28T03:01:50.382Z,21.56
2022-07-28T03:07:19.581Z,21.26
2022-07-28T03:12:50.491Z,21.16
2022-07-28T03:18:20.056Z,21.27
2022-07-28T03:23:51.211Z,21.55
2022-07-28T03:29:21.801Z,21.83
2022-07-28T03:34:52.468Z,22.08
2022-07-28T03:40:26.045Z,22.29
2022-07-28T03:45:56.392Z,22.48
2022-07-28T03:51:25.683Z,22.56
2022-07-28T03:56:54.921Z,22.69
2022-07-28T04:02:25.517Z,22.85
2022-07-28T04:07:55.114Z,22.99
2022-07-28T04:13:23.810Z,23.12
2022-07-28T04:18:54.479Z,23.33
2022-07-28T04:24:23.761Z,23.54
2022-07-28T04:29:52.857Z,23.74
2022-07-28T04:35:26.112Z,23.96
2022-07-28T04:40:54.994Z,24.09
2022-07-28T04:46:24.020Z,24.19
2022-07-28T04:51:54.079Z,24.33
2022-07-28T04:57:28.364Z,24.47
2022-07-28T05:02:58.556Z,24.63
2022-07-28T05:08:29.438Z,24.76
2022-07-28T05:13:58.770Z,24.91
2022-07-28T05:19:27.979Z,25.08
2022-07-28T05:24:58.477Z,25.25
2022-07-28T05:30:28.285Z,25.40
2022-07-28T05:35:58.542Z,25.53
2022-07-28T05:41:29.112Z,25.63
2022-07-28T05:46:57.785Z,25.74
2022-07-28T05:52:27.940Z,25.90
2022-07-28T05:57:59.062Z,26.04
2022-07-28T06:03:28.872Z,26.20
2022-07-28T06:08:58.047Z,26.29
2022-07-28T06:14:28.205Z,26.35
2022-07-28T06:19:56.924Z,26.46
2022-07-28T06:25:27.256Z,26.58
2022-07-28T06:30:57.459Z,26.80
2022-07-28T06:36:27.179Z,27.03
2022-07-28T06:41:55.911Z,27.27
2022-07-28T06:47:27.786Z,27.56
2022-07-28T06:52:57.829Z,27.96
2022-07-28T06:58:27.717Z,28.75
2022-07-28T07:03:58.613Z,31.19
2022-07-28T07:09:27.834Z,33.61
2022-07-28T07:14:56.795Z,35.56
2022-07-28T07:20:28.255Z,36.55
2022-07-28T07:25:57.052Z,37.52
2022-07-28T07:31:25.929Z,38.38
2022-07-28T07:36:55.975Z,39.07
2022-07-28T07:42:24.883Z,39.49
2022-07-28T07:47:53.829Z,39.71
2022-07-28T07:53:24.441Z,39.97
2022-07-28T07:58:56.871Z,39.66
2022-07-28T08:04:26.885Z,39.38
2022-07-28T08:09:59.354Z,39.20
2022-07-28T08:15:28.043Z,39.15
2022-07-28T08:20:56.778Z,39.35
2022-07-28T08:26:28.921Z,38.98
2022-07-28T08:31:58.178Z,38.27
2022-07-28T08:37:27.475Z,37.79
2022-07-28T08:43:04.351Z,37.62
2022-07-28T08:48:34.865Z,37.10
2022-07-28T08:54:04.722Z,37.07
2022-07-28T08:59:35.758Z,37.11
2022-07-28T09:05:05.887Z,37.10
2022-07-28T09:10:35.245Z,36.97
2022-07-28T09:16:05.974Z,35.82
2022-07-28T09:21:35.346Z,35.30
2022-07-28T09:27:06.842Z,35.74
2022-07-28T09:32:39.205Z,35.52
2022-07-28T09:38:08.260Z,35.75
2022-07-28T09:43:38.695Z,35.33
2022-07-28T09:49:09.430Z,35.64
2022-07-28T09:54:41.230Z,36.21
2022-07-28T10:00:12.909Z,36.39
2022-07-28T10:05:45.160Z,36.34
2022-07-28T10:11:17.946Z,36.62
2022-07-28T10:16:52.675Z,36.82
2022-07-28T10:22:24.329Z,36.64
2022-07-28T10:27:55.049Z,36.43
2022-07-28T10:33:25.829Z,36.73
2022-07-28T10:39:03.405Z,36.57
2022-07-28T10:44:33.844Z,36.48
2022-07-28T10:50:03.314Z,36.60
2022-07-28T10:55:39.206Z,36.59
2022-07-28T11:01:17.034Z,36.15
2022-07-28T11:07:10.715Z,35.97
2022-07-28T11:12:52.719Z,36.30
2022-07-28T11:18:21.898Z,36.28
2022-07-28T11:23:56.156Z,36.28
2022-07-28T11:29:26.310Z,35.95
2022-07-28T11:35:09.529Z,36.12
2022-07-28T11:40:43.781Z,35.80
2022-07-28T11:46:37.560Z,36.09
2022-07-28T11:52:22.883Z,36.15
2022-07-28T11:57:54.003Z,36.32
2022-07-28T12:03:49.557Z,36.45
2022-07-28T12:09:41.546Z,36.51
2022-07-28T12:15:15.802Z,36.54
2022-07-28T12:20:52.882Z,36.34
2022-07-28T12:26:31.754Z,35.97
2022-07-28T12:32:04.856Z,36.19
2022-07-28T12:37:35.480Z,35.97
2022-07-28T12:43:05.259Z,36.00
2022-07-28T12:48:33.857Z,36.06
2022-07-28T12:54:06.264Z,36.36
2022-07-28T12:59:36.322Z,36.54
2022-07-28T13:05:07.825Z,36.61
2022-07-28T13:10:47.224Z,36.43
2022-07-28T13:16:18.929Z,35.56
2022-07-28T13:21:56.877Z,35.35
2022-07-28T13:27:30.000Z,34.99
2022-07-28T13:33:00.509Z,34.28
2022-07-28T13:38:29.845Z,33.69
2022-07-28T13:44:00.586Z,32.77
2022-07-28T13:49:31.659Z,32.19
2022-07-28T13:55:03.919Z,32.05
2022-07-28T14:00:35.496Z,32.52
2022-07-28T14:06:04.865Z,33.35
2022-07-28T14:11:34.573Z,34.18
2022-07-28T14:17:32.545Z,34.83
2022-07-28T14:22:58.246Z,34.88
2022-07-28T14:28:26.849Z,34.94
2022-07-28T14:33:57.294Z,34.81
2022-07-28T14:39:26.052Z,34.73
2022-07-28T14:44:54.918Z,34.41
2022-07-28T14:50:25.458Z,34.23
2022-07-28T14:55:54.971Z,34.28
2022-07-28T15:01:25.207Z,34.06
2022-07-28T15:06:55.599Z,34.00
2022-07-28T15:12:25.141Z,33.89
2022-07-28T15:17:55.952Z,33.91
2022-07-28T15:23:26.249Z,33.85
2022-07-28T15:28:54.835Z,33.49
2022-07-28T15:34:24.252Z,33.37
2022-07-28T15:39:54.102Z,33.19
2022-07-28T15:45:23.064Z,32.81
2022-07-28T15:50:52.912Z,32.39
2022-07-28T15:56:23.226Z,31.70
2022-07-28T16:01:52.083Z,31.38
2022-07-28T16:07:23.139Z,31.20
2022-07-28T16:12:55.999Z,30.96
2022-07-28T16:18:25.075Z,30.82
2022-07-28T16:23:54.047Z,30.71
2022-07-28T16:29:24.252Z,30.55
2022-07-28T16:34:54.101Z,30.39
2022-07-28T16:40:22.909Z,30.14
2022-07-28T16:45:53.602Z,30.02
2022-07-28T16:51:22.878Z,29.79
2022-07-28T16:56:54.620Z,29.61
2022-07-28T17:02:25.134Z,29.50
2022-07-28T17:07:54.069Z,29.30
2022-07-28T17:13:25.728Z,29.23
2022-07-28T17:18:55.976Z,29.10
2022-07-28T17:24:24.930Z,28.93
2022-07-28T17:29:53.876Z,28.81
2022-07-28T17:35:31.907Z,28.44
2022-07-28T17:41:04.953Z,28.38
2022-07-28T17:46:35.001Z,28.29
2022-07-28T17:52:07.276Z,28.21
2022-07-28T17:57:37.775Z,28.16
2022-07-28T18:03:11.356Z,27.94
2022-07-28T18:08:42.064Z,27.90
2022-07-28T18:14:10.942Z,27.83
2022-07-28T18:19:44.993Z,27.75
2022-07-28T18:25:16.576Z,27.69
2022-07-28T18:30:46.124Z,27.58
2022-07-28T18:36:15.494Z,27.55
2022-07-28T18:41:47.771Z,27.50
2022-07-28T18:47:16.686Z,27.42
2022-07-28T18:52:46.307Z,27.35
2022-07-28T18:58:17.344Z,27.26
2022-07-28T19:03:47.222Z,27.17
2022-07-28T19:09:16.535Z,27.11
2022-07-28T19:14:47.409Z,27.05
2022-07-28T19:20:17.615Z,26.95
2022-07-28T19:25:46.931Z,26.89
2022-07-28T19:31:18.389Z,26.82
2022-07-28T19:36:47.608Z,26.75
2022-07-28T19:42:16.718Z,26.67
2022-07-28T19:47:49.899Z,26.54
2022-07-28T19:53:18.987Z,26.41
2022-07-28T19:58:47.673Z,26.28
2022-07-28T20:04:18.496Z,26.23
2022-07-28T20:09:47.726Z,26.19
2022-07-28T20:15:16.703Z,26.18
2022-07-28T20:20:47.213Z,26.16
2022-07-28T20:26:17.219Z,26.03
2022-07-28T20:31:53.283Z,25.88
2022-07-28T20:37:35.980Z,25.76
2022-07-28T20:43:06.815Z,25.66
2022-07-28T20:48:35.998Z,25.56
2022-07-28T20:54:06.147Z,25.47
2022-07-28T20:59:34.983Z,25.32
2022-07-28T21:05:03.895Z,25.12
2022-07-28T21:10:34.304Z,25.01
2022-07-28T21:16:03.814Z,24.92
2022-07-28T21:21:32.750Z,24.84
2022-07-28T21:27:03.333Z,24.78
2022-07-28T21:32:32.632Z,24.67
2022-07-28T21:38:01.949Z,24.55
2022-07-28T21:43:32.292Z,24.41
2022-07-28T21:49:02.092Z,24.35
2022-07-28T21:54:30.668Z,24.33
2022-07-28T22:00:01.576Z,24.31
2022-07-28T22:05:31.055Z,24.26
2022-07-28T22:11:00.895Z,24.20
2022-07-28T22:16:30.882Z,24.11
2022-07-28T22:22:00.412Z,24.00
2022-07-28T22:27:29.619Z,23.97
2022-07-28T22:33:00.339Z,23.99
2022-07-28T22:38:29.593Z,23.91
2022-07-28T22:43:58.770Z,23.88
2022-07-28T22:49:29.443Z,23.87
2022-07-28T22:54:58.824Z,23.82
2022-07-28T23:00:27.587Z,23.74
2022-07-28T23:06:00.363Z,23.67
2022-07-28T23:11:29.837Z,23.64
2022-07-28T23:16:58.592Z,23.58
2022-07-28T23:22:29.765Z,23.48
2022-07-28T23:27:58.710Z,23.41
2022-07-28T23:33:56.158Z,23.39
2022-07-28T23:39:18.416Z,23.33
2022-07-28T23:44:47.589Z,23.30
2022-07-28T23:50:16.787Z,23.23
2022-07-28T23:55:51.194Z,23.24
